San Martin, Argentina
Current Conditions -  °F | °C
As of 5:00 AM on Sunday 26 Oct 2014 (Local Time) from SAME Reporting Station
Clear Clear  
Wind Chill: 77°   Ceiling: Unl
Heat Index: 79°   Visibility: 6mi
Dew Point: 55°   Wind: 6mph
Humidity: 47%   Direction: 140°SE
Pressure: 29.71"   Gusts: NA
Location:  33.07°S, 68.49°W
Report Text: SAME 260800Z 14005KT CAVOK 25/13 Q1006
Loading
Personal Weather Stations






























Interactive Weather Map
Tropical Storm Tracking
New forecast layout! Learn more

10-Day Weather Forecast

Advertisements
Track Severe Weather on mobile